Time;durP1;ratioP1;P1;durP2;ratioP2;P2;SDS_P1;SDS_P2;PMS_P1;PMS_P2;Temp;Humidity;BMP_temperature;BMP_pressure;BME280_temperature;BME280_humidity;BME280_pressure;Samples;Min_cycle;Max_cycle;Signal;HPM_P1;HPM_P2
2022/05/01 00:00:07;;;;;;;13.03;11.63;;;;;;;8.81;100.00;96720.28;5059859;28;20983;-75
2022/05/01 00:02:35;;;;;;;12.80;11.60;;;;;;;8.85;100.00;96723.88;5053774;28;21345;-75
2022/05/01 00:05:02;;;;;;;12.60;11.30;;;;;;;8.76;100.00;96710.66;5037145;28;20448;-75
2022/05/01 00:07:28;;;;;;;12.30;11.07;;;;;;;8.75;100.00;96692.50;5053119;28;20505;-75
2022/05/01 00:09:55;;;;;;;11.43;10.23;;;;;;;8.92;100.00;96715.50;5054187;28;20546;-75
2022/05/01 00:12:22;;;;;;;12.37;11.37;;;;;;;8.67;100.00;96688.75;5036090;28;20469;-75
2022/05/01 00:14:49;;;;;;;12.43;11.23;;;;;;;8.77;100.00;96703.53;5036594;28;20431;-75
2022/05/01 00:17:16;;;;;;;10.57;9.67;;;;;;;8.86;100.00;96728.84;5037767;28;20475;-75
2022/05/01 00:19:43;;;;;;;12.63;11.43;;;;;;;8.62;100.00;96703.94;5037350;28;20899;-75
2022/05/01 00:22:18;;;;;;;10.70;9.77;;;;;;;8.56;100.00;96677.72;5035893;28;20458;-75
2022/05/01 00:24:45;;;;;;;11.90;10.40;;;;;;;8.46;100.00;96698.28;5053491;28;20463;-75
2022/05/01 00:27:12;;;;;;;12.10;11.10;;;;;;;8.38;100.00;96681.34;5035317;28;20534;-75
2022/05/01 00:29:39;;;;;;;12.40;11.40;;;;;;;8.50;100.00;96704.50;5035585;28;20473;-76
2022/05/01 00:32:07;;;;;;;11.90;10.80;;;;;;;8.56;100.00;96703.28;5035357;28;20859;-78
2022/05/01 00:37:19;;;;;;;15.07;13.57;;;;;;;8.54;100.00;96703.56;5053111;28;20860;-75
2022/05/01 00:39:47;;;;;;;11.97;10.73;;;;;;;8.66;100.00;96710.13;5034694;28;20463;-75
2022/05/01 00:42:18;;;;;;;12.43;11.20;;;;;;;8.66;100.00;96729.38;5053268;28;20854;-75
2022/05/01 00:44:44;;;;;;;12.33;11.30;;;;;;;8.47;100.00;96705.88;5035080;28;20555;-75
2022/05/01 00:47:12;;;;;;;12.57;11.40;;;;;;;8.58;100.00;96724.84;5034996;28;20866;-75
2022/05/01 00:49:38;;;;;;;13.33;12.07;;;;;;;7.18;100.00;96515.56;5051916;28;20466;-75
2022/05/01 00:52:09;;;;;;;13.40;11.83;;;;;;;8.52;100.00;96721.56;5051764;28;20453;-75
2022/05/01 00:54:38;;;;;;;14.20;12.80;;;;;;;8.52;100.00;96720.78;5051662;28;20532;-75
2022/05/01 00:57:06;;;;;;;14.00;12.70;;;;;;;8.46;100.00;96709.59;5034657;28;20473;-75
2022/05/01 00:59:36;;;;;;;13.90;12.50;;;;;;;8.56;100.00;96714.63;5035739;28;20452;-75
2022/05/01 01:02:05;;;;;;;13.93;11.80;;;;;;;8.30;100.00;96674.94;5035521;28;20793;-75
2022/05/01 01:04:32;;;;;;;13.63;12.43;;;;;;;8.51;100.00;96711.31;5034939;28;20932;-75
2022/05/01 01:06:58;;;;;;;13.87;12.47;;;;;;;8.47;100.00;96684.81;5035402;28;20526;-75
2022/05/01 01:09:26;;;;;;;14.70;13.33;;;;;;;8.10;100.00;96698.34;5034850;28;20483;-75
2022/05/01 01:12:53;;;;;;;16.00;14.40;;;;;;;8.34;100.00;96698.84;5034939;28;20448;-75
2022/05/01 01:14:42;;;;;;;16.20;13.07;;;;;;;8.39;100.00;96706.59;5034447;28;20996;-75
2022/05/01 01:17:10;;;;;;;15.80;14.20;;;;;;;8.52;100.00;96711.00;5034391;28;20452;-75
2022/05/01 01:19:37;;;;;;;16.20;14.53;;;;;;;8.50;100.00;96707.13;5034128;28;20492;-75
2022/05/01 01:22:06;;;;;;;18.30;15.73;;;;;;;8.61;100.00;96705.78;5034496;28;20534;-75
2022/05/01 01:24:35;;;;;;;17.47;15.77;;;;;;;8.61;100.00;96710.28;5035102;28;20449;-75
2022/05/01 01:27:02;;;;;;;18.77;16.97;;;;;;;8.50;100.00;96693.94;5052823;28;20444;-75
2022/05/01 01:32:16;;;;;;;17.13;15.43;;;;;;;8.53;100.00;96683.56;5052992;28;20426;-75
2022/05/01 01:34:43;;;;;;;18.30;16.30;;;;;;;8.45;100.00;96663.25;5034976;28;20535;-75
2022/05/01 01:37:13;;;;;;;16.80;15.10;;;;;;;8.64;100.00;96691.22;5053048;28;20428;-75
2022/05/01 01:39:40;;;;;;;17.30;15.60;;;;;;;8.53;100.00;96674.91;5035074;28;20885;-75
2022/05/01 01:42:09;;;;;;;17.33;15.50;;;;;;;8.67;100.00;96699.28;5035229;28;20440;-75
2022/05/01 01:44:38;;;;;;;17.30;15.13;;;;;;;8.63;100.00;96698.34;5034509;28;20486;-75
2022/05/01 01:47:06;;;;;;;16.97;15.37;;;;;;;8.55;100.00;96689.34;5052124;28;20427;-75
2022/05/01 01:49:33;;;;;;;15.80;14.30;;;;;;;8.35;100.00;96671.41;5034755;28;20565;-75
2022/05/01 01:52:00;;;;;;;17.33;15.77;;;;;;;8.31;100.00;96678.34;5032944;28;20429;-75
2022/05/01 01:54:28;;;;;;;16.80;15.33;;;;;;;8.30;100.00;96674.16;5030529;28;20453;-75
2022/05/01 01:56:55;;;;;;;16.13;14.53;;;;;;;8.20;100.00;96655.97;5052490;28;20432;-75
2022/05/01 01:59:22;;;;;;;15.80;14.30;;;;;;;8.23;100.00;96679.84;5034701;28;20436;-75
2022/05/01 02:01:49;;;;;;;15.40;13.90;;;;;;;8.12;100.00;96659.31;5034452;28;20448;-75
2022/05/01 02:04:17;;;;;;;19.03;15.90;;;;;;;8.36;100.00;96696.69;5054229;28;20431;-75
2022/05/01 02:06:44;;;;;;;17.00;15.30;;;;;;;8.28;100.00;96682.38;5035213;28;20457;-75
2022/05/01 02:09:13;;;;;;;18.57;16.67;;;;;;;8.34;100.00;96695.41;5035162;28;20536;-75
2022/05/01 02:11:40;;;;;;;18.03;16.30;;;;;;;8.28;100.00;96700.03;5043062;28;20440;-75
2022/05/01 02:14:10;;;;;;;19.40;15.67;;;;;;;7.86;100.00;96643.38;5049271;28;20452;-75
2022/05/01 02:16:37;;;;;;;16.50;14.90;;;;;;;8.02;100.00;96668.28;5049268;28;20435;-75
2022/05/01 02:19:04;;;;;;;19.03;15.07;;;;;;;8.11;100.00;96665.66;5033030;28;20510;-75
2022/05/01 02:21:36;;;;;;;17.67;15.87;;;;;;;8.15;100.00;96672.69;5049115;28;20460;-75
2022/05/01 02:24:07;;;;;;;18.30;16.50;;;;;;;8.10;100.00;96679.91;5048948;28;20431;-75
2022/05/01 02:26:35;;;;;;;19.80;17.90;;;;;;;8.09;100.00;96688.91;5048514;28;20461;-75
2022/05/01 02:29:04;;;;;;;17.77;16.17;;;;;;;8.02;100.00;96686.69;5047703;28;20461;-75
2022/05/01 02:31:31;;;;;;;17.50;15.93;;;;;;;7.86;100.00;96667.84;5034982;28;20532;-75
2022/05/01 02:33:58;;;;;;;18.80;17.03;;;;;;;7.68;100.00;96638.00;5033952;28;20428;-75
2022/05/01 02:36:25;;;;;;;18.30;16.50;;;;;;;7.68;100.00;96672.22;5051746;28;20479;-75
2022/05/01 02:38:52;;;;;;;17.17;15.37;;;;;;;7.80;100.00;96668.28;5033355;28;20470;-75
2022/05/01 02:41:18;;;;;;;16.90;15.20;;;;;;;7.96;100.00;96675.50;5033547;28;20454;-75
2022/05/01 02:43:45;;;;;;;17.03;15.23;;;;;;;8.02;100.00;96675.41;5033222;28;20437;-75
2022/05/01 02:46:13;;;;;;;16.33;14.80;;;;;;;8.09;100.00;96683.63;5031700;28;20491;-75
2022/05/01 02:48:40;;;;;;;18.43;16.67;;;;;;;7.93;100.00;96651.63;5017443;28;20801;-75
2022/05/01 02:51:07;;;;;;;17.47;15.67;;;;;;;7.89;100.00;96650.69;5033629;28;20539;-74
2022/05/01 02:53:33;;;;;;;19.77;17.53;;;;;;;8.17;100.00;96683.69;5036171;28;20448;-74
2022/05/01 02:56:00;;;;;;;17.33;15.53;;;;;;;7.99;100.00;96656.47;5020139;28;20538;-75
2022/05/01 02:58:28;;;;;;;34.53;16.07;;;;;;;8.23;100.00;96690.38;5032995;28;20447;-74
2022/05/01 03:00:56;;;;;;;17.10;15.40;;;;;;;8.24;100.00;96675.34;5032909;28;20544;-74
2022/05/01 03:03:24;;;;;;;13.70;12.30;;;;;;;8.44;100.00;96674.09;5052897;28;20432;-75
2022/05/01 03:05:54;;;;;;;13.80;11.57;;;;;;;8.42;100.00;96687.56;5036987;28;20497;-75
2022/05/01 03:08:21;;;;;;;12.43;11.00;;;;;;;8.35;100.00;96689.84;5036931;28;20514;-74
2022/05/01 03:10:48;;;;;;;13.53;11.80;;;;;;;8.24;100.00;96697.19;5041818;28;20493;-74
2022/05/01 03:13:15;;;;;;;14.13;12.73;;;;;;;7.97;100.00;96668.38;5036756;28;20466;-74
2022/05/01 03:15:41;;;;;;;16.93;11.80;;;;;;;8.07;100.00;96697.09;5041606;28;20463;-74
2022/05/01 03:23:40;;;;;;;14.07;12.83;;;;;;;7.97;100.00;96706.00;5053209;28;20931;-74
2022/05/01 03:26:06;;;;;;;14.60;13.30;;;;;;;7.85;100.00;96671.53;5036757;28;20486;-74
2022/05/01 03:28:33;;;;;;;13.50;12.17;;;;;;;8.01;100.00;96706.19;5042221;28;20425;-74
2022/05/01 03:31:00;;;;;;;14.10;12.70;;;;;;;7.80;100.00;96676.16;5053827;28;20806;-74
2022/05/01 03:33:27;;;;;;;15.33;13.17;;;;;;;7.83;100.00;96675.56;5040947;28;20466;-74
2022/05/01 03:35:53;;;;;;;13.03;12.03;;;;;;;7.96;100.00;96698.41;5055138;28;20978;-74
2022/05/01 03:38:21;;;;;;;12.50;11.40;;;;;;;7.96;100.00;96707.09;5054568;28;20467;-74
2022/05/01 03:40:48;;;;;;;13.47;12.07;;;;;;;7.99;100.00;96703.06;5036681;28;20786;-74
2022/05/01 03:43:21;;;;;;;12.80;11.67;;;;;;;7.99;100.00;96709.13;5036395;28;20436;-74
2022/05/01 03:45:48;;;;;;;13.83;12.50;;;;;;;7.83;100.00;96701.88;5036359;28;20467;-74
2022/05/01 03:48:14;;;;;;;14.63;12.07;;;;;;;7.69;100.00;96681.66;5037089;28;20459;-74
2022/05/01 03:50:41;;;;;;;14.70;13.40;;;;;;;7.61;100.00;96682.38;5036286;28;20563;-74
2022/05/01 03:53:09;;;;;;;14.33;12.80;;;;;;;7.89;100.00;96713.88;5041510;28;20446;-74
2022/05/01 03:55:36;;;;;;;14.03;12.57;;;;;;;7.82;100.00;96701.09;5052867;28;20481;-74
2022/05/01 03:58:03;;;;;;;13.63;12.33;;;;;;;7.89;100.00;96705.97;5034870;28;20674;-74
2022/05/01 04:00:31;;;;;;;16.93;12.50;;;;;;;8.04;100.00;96707.47;5036231;28;20876;-74
2022/05/01 04:02:57;;;;;;;15.40;13.90;;;;;;;7.79;100.00;96679.88;5035879;28;20442;-74
2022/05/01 04:05:24;;;;;;;13.20;12.07;;;;;;;8.18;100.00;96724.75;5035824;28;20468;-75
2022/05/01 04:07:51;;;;;;;14.20;12.27;;;;;;;8.07;100.00;96704.22;5035992;28;20537;-74
2022/05/01 04:10:18;;;;;;;13.37;12.27;;;;;;;7.97;100.00;96727.06;5053792;28;20460;-74
2022/05/01 04:12:46;;;;;;;13.33;12.03;;;;;;;8.09;100.00;96718.66;5053779;28;20432;-74
2022/05/01 04:15:14;;;;;;;14.13;12.77;;;;;;;8.00;100.00;96723.84;5034780;28;20966;-74
2022/05/01 04:17:42;;;;;;;15.63;14.13;;;;;;;7.93;100.00;96723.50;5039326;28;20452;-74
2022/05/01 04:20:14;;;;;;;14.20;12.90;;;;;;;7.50;100.00;96699.47;5035738;28;20466;-74
2022/05/01 04:22:48;;;;;;;16.77;14.57;;;;;;;7.48;100.00;96732.38;5038950;28;21020;-74
2022/05/01 04:25:19;;;;;;;15.67;14.07;;;;;;;7.29;100.00;96735.16;5056165;28;20982;-73
2022/05/01 04:27:48;;;;;;;20.50;14.90;;;;;;;7.66;100.00;96732.25;5037168;28;20485;-74
2022/05/01 04:30:16;;;;;;;17.57;15.10;;;;;;;7.60;100.00;96703.72;5035762;28;20455;-74
2022/05/01 04:32:55;;;;;;;17.63;14.43;;;;;;;7.80;100.00;96715.66;5035537;28;20468;-74
2022/05/01 04:35:26;;;;;;;17.70;14.77;;;;;;;7.82;100.00;96732.69;5039841;28;20483;-75
2022/05/01 04:37:52;;;;;;;16.10;14.40;;;;;;;7.74;100.00;96732.63;5035810;28;20997;-74
2022/05/01 04:40:20;;;;;;;16.43;14.77;;;;;;;7.58;100.00;96740.06;5051717;28;20536;-74
2022/05/01 04:42:46;;;;;;;16.47;14.67;;;;;;;7.47;100.00;96728.97;5039539;28;20486;-74
2022/05/01 04:45:13;;;;;;;15.20;13.70;;;;;;;7.58;100.00;96719.03;5043653;28;21138;-74
2022/05/01 04:47:40;;;;;;;14.30;12.93;;;;;;;7.69;100.00;96741.41;5050648;28;20487;-74
2022/05/01 04:50:08;;;;;;;17.77;15.90;;;;;;;7.61;100.00;96742.09;5040351;28;20464;-74
2022/05/01 04:52:36;;;;;;;17.10;15.40;;;;;;;7.48;100.00;96735.81;5056695;28;20773;-74
2022/05/01 04:55:04;;;;;;;15.77;13.70;;;;;;;7.48;100.00;96717.41;5053224;28;20467;-74
2022/05/01 04:57:31;;;;;;;16.33;14.63;;;;;;;7.51;100.00;96716.81;5035168;28;20475;-74
2022/05/01 04:59:58;;;;;;;16.10;14.60;;;;;;;7.49;100.00;96734.75;5036979;28;20460;-74
2022/05/01 05:02:36;;;;;;;19.67;15.63;;;;;;;7.43;100.00;96738.53;5034753;28;20444;-74
2022/05/01 05:05:04;;;;;;;17.00;15.23;;;;;;;7.34;100.00;96719.25;5034826;28;20462;-74
2022/05/01 05:07:31;;;;;;;18.80;15.57;;;;;;;7.40;100.00;96705.72;5034693;28;20463;-74
2022/05/01 05:09:58;;;;;;;15.50;13.90;;;;;;;7.68;100.00;96738.00;5034622;28;20846;-74
2022/05/01 05:12:25;;;;;;;18.70;17.00;;;;;;;7.43;100.00;96698.31;5034547;28;20519;-75
2022/05/01 05:14:55;;;;;;;16.77;15.07;;;;;;;7.67;100.00;96746.97;5052572;28;20428;-74
2022/05/01 05:17:22;;;;;;;20.70;15.33;;;;;;;7.87;100.00;96758.13;5034627;28;21054;-74
2022/05/01 05:19:49;;;;;;;17.83;16.23;;;;;;;7.59;100.00;96749.53;5034559;28;20484;-75
2022/05/01 05:22:16;;;;;;;16.60;14.10;;;;;;;7.93;100.00;96754.31;5034502;28;20443;-75
2022/05/01 05:24:43;;;;;;;20.33;15.93;;;;;;;7.93;100.00;96763.00;5051169;28;20438;-74
2022/05/01 05:27:11;;;;;;;15.77;13.97;;;;;;;8.19;100.00;96762.41;5017688;28;20472;-74
2022/05/01 05:29:39;;;;;;;17.73;15.90;;;;;;;8.36;100.00;96764.41;5052231;28;20489;-74
2022/05/01 05:32:07;;;;;;;18.03;16.20;;;;;;;8.42;100.00;96763.22;5034161;28;20493;-74
2022/05/01 05:34:33;;;;;;;18.20;15.50;;;;;;;8.32;100.00;96734.44;5034452;28;20451;-74
2022/05/01 05:37:00;;;;;;;17.20;15.43;;;;;;;8.44;100.00;96729.44;5038696;28;20531;-74
2022/05/01 05:39:26;;;;;;;16.17;14.67;;;;;;;8.67;100.00;96761.78;5034244;28;20896;-74
2022/05/01 05:41:53;;;;;;;18.93;17.03;;;;;;;8.55;100.00;96742.06;5034034;28;20441;-74
2022/05/01 05:44:20;;;;;;;20.50;16.23;;;;;;;8.83;100.00;96774.28;5043801;28;20885;-74
2022/05/01 05:46:46;;;;;;;19.03;16.83;;;;;;;8.88;100.00;96779.41;5033915;28;20496;-74
2022/05/01 05:49:13;;;;;;;18.60;16.73;;;;;;;8.97;100.00;96771.56;5033828;28;20624;-74
2022/05/01 05:51:40;;;;;;;18.20;16.40;;;;;;;9.02;100.00;96779.31;5036974;28;20526;-74
2022/05/01 05:54:06;;;;;;;17.63;16.03;;;;;;;8.89;100.00;96744.06;5023583;28;20524;-74
2022/05/01 05:56:33;;;;;;;19.07;15.47;;;;;;;9.12;100.00;96797.53;5033909;28;20462;-74
2022/05/01 05:59:00;;;;;;;19.17;14.77;;;;;;;9.02;100.00;96765.34;5023454;28;21016;-74
2022/05/01 06:01:26;;;;;;;16.50;14.80;;;;;;;9.13;100.00;96793.78;5031059;28;21009;-74
2022/05/01 06:03:53;;;;;;;16.20;14.60;;;;;;;9.07;100.00;96758.06;5033828;28;20458;-74
2022/05/01 06:06:20;;;;;;;17.30;15.57;;;;;;;9.11;100.00;96766.94;5036927;28;20451;-74
2022/05/01 06:08:47;;;;;;;17.13;15.20;;;;;;;9.11;100.00;96774.84;5034097;28;20467;-74
2022/05/01 06:11:13;;;;;;;20.77;15.87;;;;;;;8.96;100.00;96756.03;5051711;28;20547;-74
2022/05/01 06:13:40;;;;;;;16.93;15.33;;;;;;;9.19;100.00;96758.25;5033608;28;20443;-74
2022/05/01 06:16:07;;;;;;;19.13;17.10;;;;;;;9.08;100.00;96745.66;5036629;28;20444;-77
2022/05/01 06:18:33;;;;;;;17.77;15.97;;;;;;;9.04;100.00;96781.66;5041689;28;20448;-74
2022/05/01 06:21:00;;;;;;;25.90;17.90;;;;;;;8.95;100.00;96765.00;5017012;28;20473;-74
2022/05/01 06:23:27;;;;;;;18.97;17.10;;;;;;;8.75;100.00;96788.19;5033726;28;20867;-74
2022/05/01 06:25:54;;;;;;;18.43;15.90;;;;;;;8.67;100.00;96764.41;5034629;28;20484;-74
2022/05/01 06:28:21;;;;;;;21.47;18.20;;;;;;;8.98;100.00;96788.94;5033583;28;20428;-74
2022/05/01 06:30:49;;;;;;;18.77;16.77;;;;;;;9.31;100.00;96786.72;5033553;28;20485;-74
2022/05/01 06:33:18;;;;;;;20.20;18.20;;;;;;;9.31;100.00;96791.22;5051236;28;20436;-74
2022/05/01 06:35:50;;;;;;;21.83;18.87;;;;;;;9.21;100.00;96773.78;5027172;28;20504;-74
2022/05/01 06:38:17;;;;;;;18.77;16.97;;;;;;;9.28;100.00;96795.25;5026459;28;20436;-74
2022/05/01 06:40:45;;;;;;;21.87;19.57;;;;;;;9.36;100.00;96794.50;5033108;28;21314;-74
2022/05/01 06:43:13;;;;;;;23.43;19.17;;;;;;;9.18;100.00;96790.22;5033264;28;20539;-74
2022/05/01 06:45:41;;;;;;;21.87;19.67;;;;;;;9.04;100.00;96777.16;5033119;28;20479;-74
2022/05/01 06:48:10;;;;;;;24.67;22.13;;;;;;;9.03;100.00;96796.69;5051966;28;20469;-75
2022/05/01 06:50:37;;;;;;;22.20;19.00;;;;;;;8.94;100.00;96803.78;5053328;28;20445;-74
2022/05/01 06:53:05;;;;;;;26.27;20.80;;;;;;;8.70;100.00;96784.91;5034950;28;20522;-74
2022/05/01 06:55:32;;;;;;;22.43;19.70;;;;;;;9.11;100.00;96795.97;5034557;28;20921;-73
2022/05/01 06:58:00;;;;;;;22.93;19.37;;;;;;;9.14;100.00;96779.53;5039716;28;20436;-73
2022/05/01 07:00:36;;;;;;;20.40;18.57;;;;;;;9.44;100.00;96804.28;5036467;28;20464;-73
2022/05/01 07:03:14;;;;;;;21.57;18.93;;;;;;;9.27;100.00;96780.50;5037341;28;20486;-73
2022/05/01 07:05:47;;;;;;;20.97;18.80;;;;;;;9.70;100.00;96796.44;5043610;28;20437;-73
2022/05/01 07:08:15;;;;;;;22.73;19.83;;;;;;;9.51;100.00;96739.72;5037897;28;20482;-73
2022/05/01 07:10:44;;;;;;;21.60;19.13;;;;;;;9.72;100.00;96775.75;5033742;28;20514;-73
2022/05/01 07:13:11;;;;;;;21.07;18.17;;;;;;;9.87;100.00;96806.22;5033612;28;20491;-73
2022/05/01 07:15:38;;;;;;;25.23;20.07;;;;;;;10.02;100.00;96805.78;5033365;28;21016;-73
2022/05/01 07:18:09;;;;;;;21.90;19.13;;;;;;;9.81;100.00;96770.50;5033715;28;20820;-73
2022/05/01 07:20:36;;;;;;;19.70;17.47;;;;;;;10.12;100.00;96780.91;5016847;28;20504;-73
2022/05/01 07:23:03;;;;;;;24.67;19.47;;;;;;;10.34;100.00;96806.44;5035227;28;20936;-73
2022/05/01 07:25:30;;;;;;;21.37;19.17;;;;;;;9.89;100.00;96758.41;5040008;28;20468;-74
2022/05/01 07:27:57;;;;;;;18.63;16.77;;;;;;;10.08;100.00;96801.13;5017090;28;21031;-73
2022/05/01 07:30:24;;;;;;;19.30;17.33;;;;;;;10.12;100.00;96783.56;5033176;28;20482;-74
2022/05/01 07:32:50;;;;;;;18.80;16.90;;;;;;;10.15;100.00;96782.16;5051149;28;20791;-74
2022/05/01 07:35:17;;;;;;;18.70;16.80;;;;;;;10.38;100.00;96783.56;5051030;28;20428;-74
2022/05/01 07:37:44;;;;;;;19.63;17.73;;;;;;;10.81;100.00;96809.16;5032968;28;21027;-74
2022/05/01 07:40:12;;;;;;;18.60;16.80;;;;;;;11.02;100.00;96814.53;5036530;28;21055;-74
2022/05/01 07:42:38;;;;;;;21.50;17.50;;;;;;;10.84;100.00;96731.81;5050822;28;20463;-74
2022/05/01 07:45:06;;;;;;;19.00;17.10;;;;;;;10.96;100.00;96808.66;5019815;28;20444;-74
2022/05/01 07:47:33;;;;;;;21.57;17.97;;;;;;;11.40;100.00;96794.16;5039170;28;20511;-74
2022/05/01 07:50:00;;;;;;;19.07;17.07;;;;;;;11.68;100.00;96783.88;5033633;28;20451;-74
2022/05/01 07:52:27;;;;;;;19.37;16.00;;;;;;;12.15;100.00;96807.56;5046251;28;20444;-74
2022/05/01 07:54:53;;;;;;;17.80;15.90;;;;;;;11.99;100.00;96795.97;5036115;28;20530;-74
2022/05/01 07:57:20;;;;;;;17.07;15.47;;;;;;;12.03;100.00;96786.31;5052594;28;20944;-74
2022/05/01 07:59:47;;;;;;;18.67;16.67;;;;;;;12.43;100.00;96805.16;5036608;28;20449;-74
2022/05/01 08:02:14;;;;;;;18.73;16.93;;;;;;;12.16;100.00;96811.00;5054075;28;20440;-74
2022/05/01 08:04:41;;;;;;;18.63;16.67;;;;;;;12.78;100.00;96807.47;5036016;28;20948;-74
2022/05/01 08:07:14;;;;;;;19.90;16.27;;;;;;;12.99;100.00;96811.63;5036090;28;21006;-74
2022/05/01 08:09:41;;;;;;;19.13;17.13;;;;;;;13.17;100.00;96790.94;5035898;28;20511;-74
2022/05/01 08:12:08;;;;;;;17.60;15.77;;;;;;;13.28;100.00;96800.06;5052331;28;20451;-74
2022/05/01 08:14:37;;;;;;;18.80;16.97;;;;;;;13.16;100.00;96813.28;5035693;28;20436;-74
2022/05/01 08:17:04;;;;;;;16.20;14.47;;;;;;;13.01;100.00;96816.59;5035909;28;20535;-74
2022/05/01 08:22:16;;;;;;;17.87;15.97;;;;;;;12.49;100.00;96793.22;5040595;28;20429;-74
2022/05/01 08:24:42;;;;;;;17.97;16.10;;;;;;;12.92;100.00;96814.03;5036138;28;20503;-74
2022/05/01 08:27:09;;;;;;;17.83;16.13;;;;;;;12.60;100.00;96770.50;5035616;28;21088;-74
2022/05/01 08:29:38;;;;;;;17.17;15.47;;;;;;;12.89;100.00;96796.09;5035688;28;20506;-74
2022/05/01 08:32:05;;;;;;;18.63;15.53;;;;;;;12.71;100.00;96805.34;5053388;28;20433;-74
2022/05/01 08:34:32;;;;;;;17.53;15.70;;;;;;;13.37;100.00;96801.84;5035598;28;21009;-74
2022/05/01 08:36:59;;;;;;;18.43;15.60;;;;;;;14.16;100.00;96801.16;5053352;28;20520;-74
2022/05/01 08:39:26;;;;;;;22.13;13.80;;;;;;;14.53;100.00;96795.72;5035282;28;20461;-74
2022/05/01 08:41:52;;;;;;;17.50;15.50;;;;;;;14.54;99.17;96793.84;5035152;28;20892;-74
2022/05/01 08:44:30;;;;;;;15.87;14.40;;;;;;;14.78;95.65;96799.03;5053227;28;20802;-74
2022/05/01 08:46:57;;;;;;;15.13;13.53;;;;;;;14.73;95.10;96796.63;5035436;28;20504;-74
2022/05/01 08:49:24;;;;;;;14.63;13.23;;;;;;;14.59;90.53;96796.28;5051936;28;20498;-74
2022/05/01 08:51:52;;;;;;;16.57;12.93;;;;;;;14.38;91.87;96770.59;5035373;28;20448;-74
2022/05/01 08:54:20;;;;;;;15.90;14.23;;;;;;;14.31;91.33;96790.94;5035608;28;20456;-74
2022/05/01 08:56:48;;;;;;;16.33;14.67;;;;;;;14.31;91.12;96777.63;5054289;28;20508;-73
2022/05/01 08:59:16;;;;;;;15.07;13.60;;;;;;;14.29;89.21;96762.00;5035068;28;20437;-74
2022/05/01 09:01:44;;;;;;;15.00;13.70;;;;;;;14.08;86.90;96775.47;5035288;28;20448;-74
2022/05/01 09:04:13;;;;;;;15.60;14.00;;;;;;;14.40;85.74;96772.91;5035128;28;20437;-74
2022/05/01 09:06:42;;;;;;;14.40;13.00;;;;;;;14.89;83.28;96788.66;5053072;28;20512;-74
2022/05/01 09:09:11;;;;;;;14.50;13.00;;;;;;;15.20;78.48;96801.97;5052881;28;20471;-74
2022/05/01 09:14:26;;;;;;;13.57;11.60;;;;;;;15.27;78.77;96791.50;5052903;28;20730;-74
2022/05/01 09:17:13;;;;;;;13.43;11.80;;;;;;;14.83;76.63;96790.81;5052506;28;20448;-74
2022/05/01 09:19:48;;;;;;;13.03;11.00;;;;;;;14.92;76.14;96799.41;5034446;28;20475;-74
2022/05/01 09:22:18;;;;;;;12.43;11.23;;;;;;;15.03;76.97;96794.34;5034499;28;20889;-74
2022/05/01 09:24:45;;;;;;;12.50;11.40;;;;;;;15.25;75.48;96771.66;5034665;28;20569;-74
2022/05/01 09:27:32;;;;;;;13.80;12.20;;;;;;;15.04;73.85;96793.22;5034328;28;20500;-74
2022/05/01 09:30:08;;;;;;;11.90;10.70;;;;;;;14.77;75.76;96763.66;5034274;28;20461;-74
2022/05/01 09:32:37;;;;;;;15.70;13.83;;;;;;;15.22;74.24;96778.44;5034195;28;21031;-74
2022/05/01 09:35:06;;;;;;;13.47;12.07;;;;;;;15.37;74.27;96803.56;5052160;28;20491;-74
2022/05/01 09:37:33;;;;;;;11.87;10.77;;;;;;;15.52;72.12;96797.44;5034078;28;21111;-74
2022/05/01 09:40:00;;;;;;;13.43;10.53;;;;;;;15.25;70.40;96793.75;5034009;28;20463;-74
2022/05/01 09:42:33;;;;;;;10.70;9.60;;;;;;;15.17;70.71;96784.03;5034253;28;20432;-74
2022/05/01 09:45:05;;;;;;;11.33;10.23;;;;;;;14.97;70.71;96793.84;5034192;28;20524;-74
2022/05/01 09:47:43;;;;;;;11.63;10.40;;;;;;;15.02;70.33;96798.13;5052023;28;20544;-74
2022/05/01 09:50:12;;;;;;;10.33;9.33;;;;;;;15.01;70.42;96769.94;5034275;28;20455;-74
2022/05/01 09:52:58;;;;;;;13.30;9.70;;;;;;;15.20;70.72;96754.03;5025768;28;20448;-74
2022/05/01 09:55:27;;;;;;;11.67;9.83;;;;;;;15.33;72.23;96787.47;5033903;28;20536;-74
2022/05/01 09:58:11;;;;;;;10.20;9.30;;;;;;;15.54;68.72;96792.53;5033902;28;20948;-74
2022/05/01 10:00:46;;;;;;;10.60;9.60;;;;;;;15.70;69.27;96800.50;5033762;28;20463;-74
2022/05/01 10:03:25;;;;;;;10.93;9.83;;;;;;;15.87;68.48;96794.00;5034318;28;20833;-74
2022/05/01 10:05:54;;;;;;;12.70;9.70;;;;;;;16.30;68.28;96793.00;5042572;28;20465;-74
2022/05/01 10:08:21;;;;;;;11.60;10.40;;;;;;;16.67;66.48;96797.88;5036247;28;20842;-74
2022/05/01 10:10:51;;;;;;;10.57;9.60;;;;;;;16.48;62.38;96791.44;5033749;28;20472;-74
2022/05/01 10:13:18;;;;;;;11.07;10.07;;;;;;;16.62;59.99;96790.16;5032825;28;20444;-74
2022/05/01 10:16:03;;;;;;;9.87;8.83;;;;;;;16.39;57.53;96764.19;5033811;28;20535;-74
2022/05/01 10:18:31;;;;;;;12.10;8.47;;;;;;;16.60;60.39;96782.53;5033364;28;20472;-74
2022/05/01 10:20:58;;;;;;;9.03;8.20;;;;;;;16.91;58.26;96789.56;5033012;28;20480;-74
2022/05/01 10:23:26;;;;;;;9.63;8.73;;;;;;;17.30;58.19;96784.09;5033507;28;20429;-74
2022/05/01 10:25:53;;;;;;;10.60;8.77;;;;;;;17.13;58.74;96788.81;5033203;28;20433;-74
2022/05/01 10:29:17;;;;;;;12.43;8.20;;;;;;;16.84;54.73;96789.47;5051093;28;20457;-74
2022/05/01 10:32:22;;;;;;;7.97;7.17;;;;;;;16.64;54.97;96758.53;5051261;28;20949;-74
2022/05/01 10:35:45;;;;;;;9.17;8.30;;;;;;;16.34;55.81;96785.06;5036433;28;20435;-74
2022/05/01 10:38:23;;;;;;;9.47;8.57;;;;;;;16.00;55.75;96778.66;5042719;28;20945;-74
2022/05/01 10:40:58;;;;;;;8.23;7.53;;;;;;;16.26;56.75;96776.13;5005115;28;20481;-74
2022/05/01 10:43:28;;;;;;;11.30;10.30;;;;;;;16.24;57.63;96779.16;5051136;28;20460;-74
2022/05/01 10:45:59;;;;;;;9.23;8.33;;;;;;;15.92;57.31;96765.19;5033407;28;20443;-74
2022/05/01 10:48:37;;;;;;;11.20;10.10;;;;;;;15.41;57.45;96763.66;5048238;28;20564;-74
2022/05/01 10:51:34;;;;;;;9.37;8.47;;;;;;;15.95;59.01;96767.16;5033110;28;20499;-74
2022/05/01 10:54:10;;;;;;;9.77;8.40;;;;;;;15.79;59.23;96763.78;5032950;28;20426;-74
2022/05/01 10:56:43;;;;;;;9.10;8.30;;;;;;;16.20;59.85;96772.22;5051069;28;20470;-74
2022/05/01 10:59:29;;;;;;;13.27;9.70;;;;;;;15.89;60.38;96760.56;5019535;28;20585;-74
2022/05/01 11:01:59;;;;;;;13.60;8.37;;;;;;;15.81;57.36;96761.53;5033315;28;20465;-72
2022/05/01 11:04:50;;;;;;;8.97;8.17;;;;;;;15.86;57.99;96752.47;5033404;28;20870;-74
2022/05/01 11:07:18;;;;;;;9.40;8.50;;;;;;;15.38;56.77;96698.50;5021669;28;20893;-73
2022/05/01 11:09:47;;;;;;;8.27;7.53;;;;;;;15.77;57.27;96758.03;5016705;28;20500;-74
2022/05/01 11:12:19;;;;;;;10.27;9.27;;;;;;;15.36;57.85;96752.16;5033218;28;20830;-73
2022/05/01 11:14:57;;;;;;;10.00;8.73;;;;;;;15.60;59.65;96748.50;5033219;28;20433;-73
2022/05/01 11:17:33;;;;;;;10.73;8.63;;;;;;;15.69;59.86;96750.22;5033112;28;20433;-73
2022/05/01 11:20:08;;;;;;;9.50;8.50;;;;;;;15.62;59.63;96748.16;5049558;28;21108;-74
2022/05/01 11:22:35;;;;;;;8.43;7.63;;;;;;;15.59;59.79;96736.28;5032984;28;20444;-73
2022/05/01 11:25:03;;;;;;;8.47;7.57;;;;;;;15.87;55.99;96757.44;5035744;28;20491;-73
2022/05/01 11:27:47;;;;;;;7.53;6.73;;;;;;;15.67;55.42;96747.91;5036512;28;20539;-73
2022/05/01 11:30:20;;;;;;;7.83;7.03;;;;;;;15.63;53.15;96749.72;5036576;28;20495;-73
2022/05/01 11:32:50;;;;;;;9.67;6.63;;;;;;;15.77;53.95;96734.03;5036678;28;20429;-73
2022/05/01 11:35:18;;;;;;;8.33;7.53;;;;;;;15.98;54.77;96741.66;5036368;28;20527;-73
2022/05/01 11:37:47;;;;;;;8.07;7.37;;;;;;;15.38;55.19;96719.81;5036669;28;20456;-73
2022/05/01 11:40:22;;;;;;;8.33;7.37;;;;;;;15.93;55.61;96749.97;5036311;28;20469;-73
2022/05/01 11:42:50;;;;;;;7.10;6.47;;;;;;;15.97;53.66;96748.13;5036502;28;20531;-73
2022/05/01 11:45:18;;;;;;;8.30;7.50;;;;;;;15.68;53.63;96740.66;5052935;28;20524;-73